createdAt,value
2019-02-20T00:01:44.729Z,18.17
2019-02-20T00:04:14.635Z,18.77
2019-02-20T00:06:44.863Z,20.83
2019-02-20T00:09:14.768Z,18.67
2019-02-20T00:11:44.094Z,18.67
2019-02-20T00:14:13.921Z,15.47
2019-02-20T00:16:43.839Z,16.90
2019-02-20T00:19:13.762Z,21.77
2019-02-20T00:21:43.617Z,19.73
2019-02-20T00:24:13.545Z,20.70
2019-02-20T00:26:43.445Z,20.57
2019-02-20T00:29:13.374Z,21.27
2019-02-20T00:31:42.691Z,17.90
2019-02-20T00:34:12.537Z,17.83
2019-02-20T00:36:42.457Z,23.93
2019-02-20T00:39:12.417Z,20.17
2019-02-20T00:41:42.265Z,20.50
2019-02-20T00:44:20.761Z,21.53
2019-02-20T00:47:08.317Z,17.47
2019-02-20T00:49:44.142Z,19.40
2019-02-20T00:52:39.145Z,20.33
2019-02-20T00:55:09.133Z,20.07
2019-02-20T00:57:39.312Z,22.20
2019-02-20T01:00:09.265Z,19.73
2019-02-20T01:02:39.471Z,18.03
2019-02-20T01:05:08.776Z,20.93
2019-02-20T01:07:38.606Z,18.87
2019-02-20T01:10:09.171Z,18.53
2019-02-20T01:12:39.051Z,18.23
2019-02-20T01:15:09.061Z,19.47
2019-02-20T01:17:38.305Z,22.57
2019-02-20T01:20:08.950Z,17.90
2019-02-20T01:22:38.861Z,17.17
2019-02-20T01:25:08.993Z,16.30
2019-02-20T01:27:38.938Z,18.13
2019-02-20T01:30:09.246Z,19.20
2019-02-20T01:32:39.168Z,18.37
2019-02-20T01:35:08.621Z,17.40
2019-02-20T01:37:37.839Z,16.60
2019-02-20T01:40:07.081Z,16.37
2019-02-20T01:42:36.909Z,19.50
2019-02-20T01:45:07.206Z,14.60
2019-02-20T01:47:37.393Z,17.23
2019-02-20T01:50:07.215Z,19.97
2019-02-20T01:52:36.957Z,13.70
2019-02-20T01:55:07.453Z,15.07
2019-02-20T01:57:37.302Z,16.27
2019-02-20T02:00:07.868Z,14.67
2019-02-20T02:02:37.053Z,16.67
2019-02-20T02:05:14.843Z,15.20
2019-02-20T02:07:38.999Z,15.60
2019-02-20T02:10:08.445Z,18.80
2019-02-20T02:12:38.213Z,16.30
2019-02-20T02:15:08.394Z,15.87
2019-02-20T02:17:37.701Z,14.40
2019-02-20T02:20:08.372Z,19.30
2019-02-20T02:22:38.354Z,15.40
2019-02-20T02:25:07.705Z,12.43
2019-02-20T02:27:37.514Z,15.37
2019-02-20T02:30:07.616Z,15.93
2019-02-20T02:32:36.832Z,18.17
2019-02-20T02:35:06.668Z,12.63
2019-02-20T02:37:36.218Z,19.50
2019-02-20T02:40:05.737Z,12.03
2019-02-20T02:42:35.004Z,14.53
2019-02-20T02:45:04.904Z,17.20
2019-02-20T02:47:34.496Z,17.50
2019-02-20T02:50:04.566Z,14.67
2019-02-20T02:52:34.461Z,18.57
2019-02-20T02:55:05.219Z,17.40
2019-02-20T02:57:34.502Z,15.50
2019-02-20T03:00:04.000Z,16.67
2019-02-20T03:02:33.822Z,20.13
2019-02-20T03:05:03.150Z,18.50
2019-02-20T03:07:33.037Z,17.03
2019-02-20T03:10:03.293Z,17.13
2019-02-20T03:12:33.241Z,16.77
2019-02-20T03:15:03.229Z,21.87
2019-02-20T03:17:32.552Z,20.70
2019-02-20T03:20:01.781Z,20.50
2019-02-20T03:22:31.018Z,19.60
2019-02-20T03:25:00.854Z,16.03
2019-02-20T03:27:30.863Z,15.20
2019-02-20T03:30:00.450Z,19.13
2019-02-20T03:32:30.316Z,16.10
2019-02-20T03:34:59.616Z,12.80
2019-02-20T03:37:29.490Z,17.93
2019-02-20T03:39:59.430Z,15.47
2019-02-20T03:42:29.412Z,17.93
2019-02-20T03:44:59.389Z,15.57
2019-02-20T03:47:29.351Z,18.57
2019-02-20T03:49:58.695Z,18.00
2019-02-20T03:52:28.260Z,15.93
2019-02-20T03:54:57.483Z,17.67
2019-02-20T03:57:26.724Z,16.17
2019-02-20T03:59:56.854Z,16.17
2019-02-20T04:02:26.778Z,16.97
2019-02-20T04:04:56.762Z,16.73
2019-02-20T04:07:26.934Z,18.80
2019-02-20T04:09:57.220Z,19.73
2019-02-20T04:12:27.157Z,17.00
2019-02-20T04:14:57.376Z,18.00
2019-02-20T04:17:27.357Z,16.17
2019-02-20T04:19:56.713Z,18.77
2019-02-20T04:22:26.558Z,21.47
2019-02-20T04:24:56.591Z,16.57
2019-02-20T04:27:26.577Z,18.90
2019-02-20T04:29:56.519Z,14.83
2019-02-20T04:32:26.489Z,22.07
2019-02-20T04:34:55.811Z,18.87
2019-02-20T04:37:25.978Z,17.57
2019-02-20T04:39:55.854Z,20.00
2019-02-20T04:42:25.186Z,23.57
2019-02-20T04:44:54.945Z,20.87
2019-02-20T04:47:24.298Z,20.73
2019-02-20T04:49:54.591Z,25.90
2019-02-20T04:52:24.526Z,22.23
2019-02-20T04:54:53.869Z,22.83
2019-02-20T04:57:23.729Z,20.30
2019-02-20T04:59:53.966Z,24.07
2019-02-20T05:02:23.971Z,21.33
2019-02-20T05:04:53.918Z,23.67
2019-02-20T05:07:23.270Z,24.57
2019-02-20T05:09:53.387Z,24.80
2019-02-20T05:12:23.951Z,19.17
2019-02-20T05:14:54.489Z,21.90
2019-02-20T05:17:24.427Z,23.87
2019-02-20T05:19:54.350Z,21.60
2019-02-20T05:22:23.659Z,24.17
2019-02-20T05:24:52.873Z,21.60
2019-02-20T05:27:22.417Z,20.27
2019-02-20T05:29:52.274Z,20.70
2019-02-20T05:32:22.209Z,22.03
2019-02-20T05:34:52.181Z,23.97
2019-02-20T05:37:22.141Z,25.40
2019-02-20T05:39:52.085Z,25.17
2019-02-20T05:42:22.022Z,22.33
2019-02-20T05:44:51.364Z,24.17
2019-02-20T05:47:21.190Z,23.63
2019-02-20T05:49:51.162Z,28.13
2019-02-20T05:52:21.093Z,25.17
2019-02-20T05:54:50.986Z,24.63
2019-02-20T05:57:20.933Z,26.87
2019-02-20T05:59:50.886Z,23.57
2019-02-20T06:02:20.861Z,25.13
2019-02-20T06:04:50.816Z,22.00
2019-02-20T06:07:20.190Z,22.53
2019-02-20T06:09:49.461Z,19.70
2019-02-20T06:12:19.303Z,27.40
2019-02-20T06:14:49.281Z,21.87
2019-02-20T06:17:18.625Z,25.67
2019-02-20T06:19:48.460Z,24.83
2019-02-20T06:22:18.398Z,25.70
2019-02-20T06:24:48.425Z,23.37
2019-02-20T06:27:18.105Z,24.33
2019-02-20T06:29:47.294Z,26.17
2019-02-20T06:32:17.423Z,25.63
2019-02-20T06:34:47.417Z,22.30
2019-02-20T06:37:17.289Z,26.33
2019-02-20T06:39:46.697Z,29.37
2019-02-20T06:42:16.546Z,27.60
2019-02-20T06:44:45.838Z,29.97
2019-02-20T06:47:15.670Z,27.90
2019-02-20T06:49:45.566Z,30.50
2019-02-20T06:52:15.562Z,27.20
2019-02-20T06:54:53.505Z,27.63
2019-02-20T06:57:15.926Z,25.50
2019-02-20T06:59:45.189Z,29.67
2019-02-20T07:02:15.021Z,32.13
2019-02-20T07:05:21.585Z,31.03
2019-02-20T07:08:20.642Z,27.30
2019-02-20T07:10:53.693Z,29.37
2019-02-20T07:13:25.909Z,32.43
2019-02-20T07:16:37.834Z,31.47
2019-02-20T07:19:10.135Z,29.67
2019-02-20T07:21:52.609Z,31.27
2019-02-20T07:24:30.748Z,31.20
2019-02-20T07:27:53.911Z,31.20
2019-02-20T07:30:23.887Z,35.33
2019-02-20T07:32:53.809Z,31.03
2019-02-20T07:35:23.695Z,33.80
2019-02-20T07:37:53.651Z,32.33
2019-02-20T07:40:23.597Z,32.13
2019-02-20T07:42:53.421Z,30.67
2019-02-20T07:45:23.315Z,30.90
2019-02-20T07:47:53.256Z,30.30
2019-02-20T07:50:23.497Z,29.80
2019-02-20T07:52:52.852Z,30.47
2019-02-20T07:55:22.508Z,32.50
2019-02-20T07:57:52.304Z,27.50
2019-02-20T08:00:21.660Z,31.30
2019-02-20T08:02:51.468Z,30.03
2019-02-20T08:05:21.632Z,23.00
2019-02-20T08:07:51.582Z,25.03
2019-02-20T08:10:21.589Z,25.17
2019-02-20T08:12:52.509Z,24.43
2019-02-20T08:15:22.702Z,19.00
2019-02-20T08:17:52.625Z,19.50
2019-02-20T08:20:21.961Z,21.20
2019-02-20T08:22:51.809Z,19.97
2019-02-20T08:25:23.143Z,19.87
2019-02-20T08:27:52.723Z,20.27
2019-02-20T08:30:22.075Z,18.03
2019-02-20T08:32:51.625Z,18.60
2019-02-20T08:35:21.836Z,21.73
2019-02-20T08:37:51.186Z,20.20
2019-02-20T08:40:21.014Z,21.27
2019-02-20T08:42:50.965Z,18.47
2019-02-20T08:45:20.883Z,20.67
2019-02-20T08:47:50.885Z,18.67
2019-02-20T08:50:20.819Z,21.23
2019-02-20T08:52:50.811Z,17.97
2019-02-20T08:55:20.805Z,17.73
2019-02-20T08:57:50.765Z,19.07
2019-02-20T09:00:21.118Z,17.00
2019-02-20T09:02:51.163Z,18.87
2019-02-20T09:05:21.222Z,18.97
2019-02-20T09:07:50.644Z,20.17
2019-02-20T09:10:20.531Z,21.60
2019-02-20T09:12:50.506Z,20.77
2019-02-20T09:15:20.466Z,24.57
2019-02-20T09:17:50.416Z,21.77
2019-02-20T09:20:20.532Z,21.87
2019-02-20T09:22:49.882Z,19.07
2019-02-20T09:25:20.262Z,20.10
2019-02-20T09:27:50.229Z,22.80
2019-02-20T09:30:28.243Z,22.27
2019-02-20T09:32:51.456Z,20.77
2019-02-20T09:35:23.082Z,20.67
2019-02-20T09:37:53.033Z,21.83
2019-02-20T09:40:23.010Z,20.37
2019-02-20T09:42:52.336Z,21.57
2019-02-20T09:45:22.114Z,22.50
2019-02-20T09:47:52.133Z,24.70
2019-02-20T09:50:21.433Z,22.10
2019-02-20T09:52:52.767Z,24.50
2019-02-20T09:55:22.306Z,26.57
2019-02-20T09:57:52.210Z,21.97
2019-02-20T10:00:22.380Z,22.23
2019-02-20T10:02:52.727Z,26.37
2019-02-20T10:05:22.082Z,27.07
2019-02-20T10:07:52.285Z,26.30
2019-02-20T10:10:22.153Z,25.40
2019-02-20T10:12:52.109Z,29.53
2019-02-20T10:15:22.103Z,30.50
2019-02-20T10:17:52.050Z,32.23
2019-02-20T10:20:21.414Z,27.60
2019-02-20T10:22:51.233Z,25.23
2019-02-20T10:25:21.173Z,22.67
2019-02-20T10:27:51.118Z,23.10
2019-02-20T10:30:21.086Z,25.40
2019-02-20T10:32:51.041Z,24.20
2019-02-20T10:35:21.015Z,24.17
2019-02-20T10:37:50.633Z,24.47
2019-02-20T10:40:20.479Z,27.30
2019-02-20T10:42:49.815Z,27.37
2019-02-20T10:45:19.734Z,24.83
2019-02-20T10:47:49.993Z,22.97
2019-02-20T10:50:20.033Z,24.47
2019-02-20T10:52:49.727Z,27.53
2019-02-20T10:55:19.066Z,22.90
2019-02-20T10:57:48.910Z,23.40
2019-02-20T11:00:24.252Z,25.50
2019-02-20T11:02:54.368Z,19.90
2019-02-20T11:05:23.741Z,20.63
2019-02-20T11:07:53.578Z,21.63
2019-02-20T11:10:24.097Z,20.20
2019-02-20T11:12:54.213Z,19.17
2019-02-20T11:15:23.568Z,17.07
2019-02-20T11:17:53.396Z,20.23
2019-02-20T11:20:23.383Z,25.10
2019-02-20T11:22:53.313Z,21.53
2019-02-20T11:25:24.165Z,20.63
2019-02-20T11:27:54.117Z,21.57
2019-02-20T11:30:24.316Z,22.60
2019-02-20T11:32:54.218Z,23.37
2019-02-20T11:35:25.645Z,19.00
2019-02-20T11:37:55.209Z,20.63
2019-02-20T11:40:24.470Z,20.13
2019-02-20T11:42:54.348Z,30.97
2019-02-20T11:45:24.262Z,29.73
2019-02-20T11:47:54.614Z,24.33
2019-02-20T11:50:24.647Z,20.17
2019-02-20T11:52:54.676Z,24.73
2019-02-20T11:55:24.861Z,20.30
2019-02-20T11:58:00.503Z,22.70
2019-02-20T12:00:26.529Z,24.27
2019-02-20T12:02:56.422Z,20.90
2019-02-20T12:05:26.395Z,26.33
2019-02-20T12:07:56.505Z,19.40
2019-02-20T12:10:25.866Z,23.70
2019-02-20T12:12:55.725Z,24.67
2019-02-20T12:15:25.095Z,22.97
2019-02-20T12:17:54.990Z,20.70
2019-02-20T12:20:24.334Z,25.60
2019-02-20T12:22:53.587Z,18.97
2019-02-20T12:25:23.449Z,20.23
2019-02-20T12:27:53.418Z,20.93
2019-02-20T12:30:23.720Z,21.00
2019-02-20T12:32:53.689Z,18.10
2019-02-20T12:35:23.652Z,16.37
2019-02-20T12:37:53.616Z,13.77
2019-02-20T12:40:23.580Z,17.67
2019-02-20T12:42:53.547Z,19.40
2019-02-20T12:45:22.800Z,20.93
2019-02-20T12:47:52.990Z,19.60
2019-02-20T12:50:24.673Z,20.93
2019-02-20T12:52:53.943Z,22.37
2019-02-20T12:55:23.812Z,24.90
2019-02-20T12:57:53.781Z,20.33
2019-02-20T13:00:23.651Z,22.63
2019-02-20T13:02:53.634Z,22.73
2019-02-20T13:05:23.703Z,21.77
2019-02-20T13:07:53.326Z,23.10
2019-02-20T13:10:23.170Z,19.37
2019-02-20T13:12:53.157Z,15.60
2019-02-20T13:15:23.155Z,16.47
2019-02-20T13:17:53.166Z,17.00
2019-02-20T13:20:22.448Z,14.53
2019-02-20T13:22:52.281Z,17.43
2019-02-20T13:25:21.973Z,16.20
2019-02-20T13:27:51.858Z,17.43
2019-02-20T13:30:21.209Z,18.20
2019-02-20T13:32:51.254Z,17.03
2019-02-20T13:35:21.421Z,15.60
2019-02-20T13:37:51.412Z,18.37
2019-02-20T13:40:20.749Z,14.93
2019-02-20T13:42:50.647Z,15.33
2019-02-20T13:45:20.623Z,12.00
2019-02-20T13:47:50.337Z,14.13
2019-02-20T13:50:20.204Z,15.60
2019-02-20T13:52:52.245Z,17.83
2019-02-20T13:55:21.785Z,15.90
2019-02-20T13:57:51.743Z,13.50
2019-02-20T14:00:22.009Z,18.10
2019-02-20T14:02:51.968Z,14.73
2019-02-20T14:05:22.255Z,20.30
2019-02-20T14:07:51.626Z,15.77
2019-02-20T14:10:20.881Z,13.97
2019-02-20T14:12:50.163Z,16.00
2019-02-20T14:15:20.009Z,13.20
2019-02-20T14:17:50.275Z,14.17
2019-02-20T14:20:20.595Z,13.50
2019-02-20T14:22:49.949Z,13.53
2019-02-20T14:25:19.854Z,13.60
2019-02-20T14:27:50.064Z,14.10
2019-02-20T14:30:20.382Z,16.03
2019-02-20T14:32:49.717Z,14.43
2019-02-20T14:35:20.001Z,12.90
2019-02-20T14:37:49.326Z,12.77
2019-02-20T14:40:19.197Z,14.60
2019-02-20T14:42:49.423Z,15.60
2019-02-20T14:45:19.394Z,13.33
2019-02-20T14:47:49.351Z,20.07
2019-02-20T14:50:19.879Z,11.80
2019-02-20T14:52:49.214Z,11.33
2019-02-20T14:55:19.474Z,13.30
2019-02-20T14:57:51.004Z,12.93
2019-02-20T15:00:21.178Z,16.87
2019-02-20T15:02:50.529Z,13.03
2019-02-20T15:05:20.222Z,14.80
2019-02-20T15:07:50.082Z,15.80
2019-02-20T15:10:20.047Z,18.10
2019-02-20T15:12:50.262Z,18.40
2019-02-20T15:15:20.215Z,15.70
2019-02-20T15:17:50.798Z,16.00
2019-02-20T15:20:21.089Z,14.73
2019-02-20T15:22:50.433Z,17.53
2019-02-20T15:25:20.325Z,17.93
2019-02-20T15:27:49.960Z,16.47
2019-02-20T15:30:20.171Z,18.17
2019-02-20T15:32:50.928Z,15.00
2019-02-20T15:35:20.957Z,14.90
2019-02-20T15:37:50.894Z,14.10
2019-02-20T15:40:20.877Z,16.53
2019-02-20T15:42:51.161Z,16.70
2019-02-20T15:45:21.166Z,15.00
2019-02-20T15:47:51.098Z,14.10
2019-02-20T15:50:21.093Z,16.00
2019-02-20T15:52:50.385Z,15.27
2019-02-20T15:55:20.313Z,17.03
2019-02-20T15:57:50.242Z,16.50
2019-02-20T16:00:21.330Z,15.87
2019-02-20T16:02:51.269Z,16.60
2019-02-20T16:05:21.274Z,14.30
2019-02-20T16:07:50.586Z,15.40
2019-02-20T16:10:21.613Z,12.47
2019-02-20T16:12:51.665Z,18.12
2019-02-20T16:15:21.672Z,15.43
2019-02-20T16:17:51.053Z,15.90
2019-02-20T16:20:20.329Z,14.33
2019-02-20T16:22:50.280Z,18.07
2019-02-20T16:25:20.527Z,17.43
2019-02-20T16:27:50.198Z,16.13
2019-02-20T16:30:19.455Z,18.60
2019-02-20T16:32:51.184Z,20.63
2019-02-20T16:35:20.377Z,19.03
2019-02-20T16:37:49.730Z,18.57
2019-02-20T16:40:19.590Z,18.13
2019-02-20T16:42:49.250Z,16.50
2019-02-20T16:45:19.509Z,23.13
2019-02-20T16:47:49.461Z,19.03
2019-02-20T16:50:19.393Z,18.07
2019-02-20T16:52:49.443Z,23.00
2019-02-20T16:55:20.022Z,16.57
2019-02-20T16:57:56.249Z,20.87
2019-02-20T17:00:21.626Z,15.27
2019-02-20T17:02:52.090Z,18.97
2019-02-20T17:05:22.039Z,20.20
2019-02-20T17:07:52.189Z,21.60
2019-02-20T17:10:22.673Z,19.23
2019-02-20T17:12:52.628Z,17.33
2019-02-20T17:15:22.862Z,18.50
2019-02-20T17:17:53.199Z,17.33
2019-02-20T17:20:22.685Z,18.83
2019-02-20T17:22:52.089Z,18.47
2019-02-20T17:25:22.264Z,20.97
2019-02-20T17:27:51.618Z,20.83
2019-02-20T17:30:20.945Z,18.93
2019-02-20T17:32:50.511Z,23.93
2019-02-20T17:35:20.375Z,19.00
2019-02-20T17:37:49.704Z,20.07
2019-02-20T17:40:18.948Z,17.27
2019-02-20T17:42:48.554Z,20.83
2019-02-20T17:45:17.870Z,18.47
2019-02-20T17:47:48.116Z,23.87
2019-02-20T17:50:18.086Z,21.37
2019-02-20T17:52:47.441Z,21.80
2019-02-20T17:55:17.641Z,18.90
2019-02-20T17:57:47.650Z,18.83
2019-02-20T18:00:19.464Z,20.67
2019-02-20T18:02:48.808Z,21.93
2019-02-20T18:05:18.682Z,20.97
2019-02-20T18:07:51.799Z,27.33
2019-02-20T18:10:19.708Z,24.93
2019-02-20T18:12:48.905Z,23.80
2019-02-20T18:15:19.900Z,23.33
2019-02-20T18:17:49.257Z,23.17
2019-02-20T18:20:19.090Z,23.10
2019-02-20T18:22:49.134Z,30.90
2019-02-20T18:25:18.508Z,27.50
2019-02-20T18:27:48.538Z,27.27
2019-02-20T18:30:18.504Z,25.63
2019-02-20T18:32:48.513Z,26.33
2019-02-20T18:35:18.470Z,24.90
2019-02-20T18:37:48.421Z,24.83
2019-02-20T18:40:17.795Z,26.67
2019-02-20T18:42:47.086Z,30.90
2019-02-20T18:45:16.429Z,33.10
2019-02-20T18:47:45.720Z,34.57
2019-02-20T18:50:15.873Z,24.10
2019-02-20T18:52:45.294Z,31.20
2019-02-20T18:55:15.597Z,39.93
2019-02-20T18:57:44.873Z,29.87
2019-02-20T19:00:15.608Z,25.57
2019-02-20T19:02:45.022Z,29.33
2019-02-20T19:05:15.250Z,30.30
2019-02-20T19:07:44.567Z,25.67
2019-02-20T19:10:15.944Z,31.23
2019-02-20T19:12:53.027Z,20.07
2019-02-20T19:15:31.129Z,26.53
2019-02-20T19:18:21.355Z,26.33
2019-02-20T19:21:12.122Z,20.10
2019-02-20T19:24:00.574Z,20.00
2019-02-20T19:26:55.126Z,21.47
2019-02-20T19:29:55.833Z,19.47
2019-02-20T19:33:03.944Z,24.37
2019-02-20T19:35:55.210Z,15.87
2019-02-20T19:38:50.215Z,22.73
2019-02-20T19:41:26.901Z,21.73
2019-02-20T19:44:25.900Z,19.93
2019-02-20T19:47:13.031Z,17.13
2019-02-20T19:50:01.369Z,20.60
2019-02-20T19:53:33.647Z,24.20
2019-02-20T19:57:06.118Z,31.90
2019-02-20T20:00:02.225Z,20.30
2019-02-20T20:03:00.389Z,22.07
2019-02-20T20:05:47.637Z,21.07
2019-02-20T20:09:01.857Z,19.43
2019-02-20T20:11:59.289Z,20.53
2019-02-20T20:14:46.541Z,16.97
2019-02-20T20:17:33.542Z,17.30
2019-02-20T20:20:24.438Z,25.80
2019-02-20T20:23:23.932Z,19.97
2019-02-20T20:26:22.797Z,17.17
2019-02-20T20:29:17.472Z,13.83
2019-02-20T20:32:36.054Z,18.87
2019-02-20T20:35:19.734Z,16.03
2019-02-20T20:38:18.562Z,17.90
2019-02-20T20:41:09.821Z,19.13
2019-02-20T20:43:49.113Z,15.83
2019-02-20T20:46:37.023Z,16.20
2019-02-20T20:49:30.050Z,19.50
2019-02-20T20:52:18.483Z,16.83
2019-02-20T20:55:02.338Z,15.23
2019-02-20T20:58:14.380Z,21.00
2019-02-20T21:01:11.794Z,15.43
2019-02-20T21:04:11.157Z,14.27
2019-02-20T21:06:48.637Z,17.77
2019-02-20T21:09:31.329Z,16.90
2019-02-20T21:12:35.179Z,16.30
2019-02-20T21:15:29.536Z,16.60
2019-02-20T21:18:09.975Z,16.10
2019-02-20T21:21:04.206Z,16.07
2019-02-20T21:24:02.793Z,15.73
2019-02-20T21:26:43.677Z,15.63
2019-02-20T21:29:38.029Z,19.00
2019-02-20T21:32:39.427Z,20.73
2019-02-20T21:35:15.713Z,23.63
2019-02-20T21:38:16.352Z,24.60
2019-02-20T21:41:12.730Z,22.43
2019-02-20T21:44:34.857Z,19.77
2019-02-20T21:47:32.725Z,20.67
2019-02-20T21:50:29.178Z,22.50
2019-02-20T21:53:07.903Z,21.90
2019-02-20T21:56:19.461Z,18.40
2019-02-20T21:59:06.528Z,13.80
2019-02-20T22:02:00.671Z,20.03
2019-02-20T22:04:51.958Z,15.90
2019-02-20T22:07:43.060Z,19.47
2019-02-20T22:10:32.799Z,21.43
2019-02-20T22:13:48.772Z,17.47
2019-02-20T22:17:18.079Z,20.80
2019-02-20T22:20:04.890Z,18.47
2019-02-20T22:23:19.501Z,15.47
2019-02-20T22:26:16.720Z,15.00
2019-02-20T22:29:01.165Z,21.70
2019-02-20T22:32:21.018Z,19.37
2019-02-20T22:35:05.898Z,16.43
2019-02-20T22:37:53.140Z,19.03
2019-02-20T22:40:38.325Z,25.37
2019-02-20T22:43:25.653Z,20.53
2019-02-20T22:46:42.878Z,20.47
2019-02-20T22:49:29.051Z,19.97
2019-02-20T22:52:04.221Z,19.67
2019-02-20T22:55:01.678Z,20.50
2019-02-20T22:58:11.543Z,20.40
2019-02-20T23:01:25.061Z,22.90
2019-02-20T23:04:35.271Z,21.07
2019-02-20T23:07:32.192Z,20.20
2019-02-20T23:10:40.740Z,21.90
2019-02-20T23:13:14.584Z,18.47
2019-02-20T23:15:44.438Z,22.87
2019-02-20T23:18:13.795Z,26.83
2019-02-20T23:20:43.062Z,17.60
2019-02-20T23:23:12.915Z,20.63
2019-02-20T23:25:42.914Z,22.43
2019-02-20T23:28:12.853Z,20.97
2019-02-20T23:30:44.979Z,20.17
2019-02-20T23:33:13.679Z,24.20
2019-02-20T23:35:42.933Z,22.27
2019-02-20T23:38:12.209Z,21.83
2019-02-20T23:40:41.762Z,19.43
2019-02-20T23:43:11.021Z,24.63
2019-02-20T23:45:40.925Z,21.23
2019-02-20T23:48:10.858Z,21.23
2019-02-20T23:50:41.100Z,19.77
2019-02-20T23:53:11.033Z,24.83
2019-02-20T23:55:41.020Z,23.63
2019-02-20T23:58:10.370Z,26.00
